sensor_id;sensor_type;location;lat;lon;timestamp;pressure;altitude;pressure_sealevel;temperature;humidity
39411;BME280;26579;43.238;23.124;2023-01-25T00:00:06;98402.44;;;2.83;74.80
39411;BME280;26579;43.238;23.124;2023-01-25T00:02:31;98404.13;;;2.84;74.60
39411;BME280;26579;43.238;23.124;2023-01-25T00:04:57;98404.38;;;2.75;75.18
39411;BME280;26579;43.238;23.124;2023-01-25T00:07:23;98385.56;;;2.72;74.61
39411;BME280;26579;43.238;23.124;2023-01-25T00:09:48;98410.81;;;2.89;75.26
39411;BME280;26579;43.238;23.124;2023-01-25T00:12:14;98405.66;;;2.91;74.61
39411;BME280;26579;43.238;23.124;2023-01-25T00:14:40;98394.91;;;2.77;74.55
39411;BME280;26579;43.238;23.124;2023-01-25T00:17:05;98409.44;;;2.78;74.08
39411;BME280;26579;43.238;23.124;2023-01-25T00:19:31;98406.47;;;2.60;74.27
39411;BME280;26579;43.238;23.124;2023-01-25T00:21:57;98407.16;;;2.33;74.06
39411;BME280;26579;43.238;23.124;2023-01-25T00:24:22;98405.06;;;1.78;75.80
39411;BME280;26579;43.238;23.124;2023-01-25T00:26:48;98416.84;;;1.87;75.44
39411;BME280;26579;43.238;23.124;2023-01-25T00:29:14;98401.81;;;1.72;76.99
39411;BME280;26579;43.238;23.124;2023-01-25T00:31:49;98411.97;;;1.76;76.50
39411;BME280;26579;43.238;23.124;2023-01-25T00:36:55;98429.78;;;1.84;75.46
39411;BME280;26579;43.238;23.124;2023-01-25T00:39:23;98411.22;;;1.71;75.30
39411;BME280;26579;43.238;23.124;2023-01-25T00:41:49;98410.03;;;1.49;76.61
39411;BME280;26579;43.238;23.124;2023-01-25T00:44:15;98409.13;;;1.50;77.65
39411;BME280;26579;43.238;23.124;2023-01-25T00:46:41;98416.25;;;1.76;77.16
39411;BME280;26579;43.238;23.124;2023-01-25T00:49:19;98402.44;;;1.81;76.25
39411;BME280;26579;43.238;23.124;2023-01-25T00:51:45;98424.94;;;2.06;76.10
39411;BME280;26579;43.238;23.124;2023-01-25T00:54:11;98410.34;;;2.10;75.14
39411;BME280;26579;43.238;23.124;2023-01-25T00:56:36;98407.69;;;2.13;74.94
39411;BME280;26579;43.238;23.124;2023-01-25T00:59:02;98421.13;;;2.22;74.23
39411;BME280;26579;43.238;23.124;2023-01-25T01:01:28;98404.31;;;2.09;74.27
39411;BME280;26579;43.238;23.124;2023-01-25T01:03:53;98392.44;;;2.05;73.98
39411;BME280;26579;43.238;23.124;2023-01-25T01:06:19;98394.03;;;2.09;74.08
39411;BME280;26579;43.238;23.124;2023-01-25T01:08:45;98397.19;;;2.20;73.94
39411;BME280;26579;43.238;23.124;2023-01-25T01:11:12;98392.72;;;2.29;73.65
39411;BME280;26579;43.238;23.124;2023-01-25T01:13:38;98399.75;;;2.22;73.16
39411;BME280;26579;43.238;23.124;2023-01-25T01:16:06;98403.56;;;2.40;72.44
39411;BME280;26579;43.238;23.124;2023-01-25T01:18:37;98386.56;;;2.36;72.67
39411;BME280;26579;43.238;23.124;2023-01-25T01:21:03;98400.59;;;2.55;72.77
39411;BME280;26579;43.238;23.124;2023-01-25T01:23:30;98398.16;;;2.51;72.81
39411;BME280;26579;43.238;23.124;2023-01-25T01:26:00;98387.78;;;2.54;73.04
39411;BME280;26579;43.238;23.124;2023-01-25T01:28:31;98385.91;;;2.60;72.62
39411;BME280;26579;43.238;23.124;2023-01-25T01:31:07;98361.34;;;2.48;72.38
39411;BME280;26579;43.238;23.124;2023-01-25T01:33:36;98377.63;;;2.49;73.77
39411;BME280;26579;43.238;23.124;2023-01-25T01:36:09;98379.47;;;2.44;73.04
39411;BME280;26579;43.238;23.124;2023-01-25T01:38:35;98379.25;;;2.53;73.54
39411;BME280;26579;43.238;23.124;2023-01-25T01:41:01;98387.47;;;2.33;73.03
39411;BME280;26579;43.238;23.124;2023-01-25T01:43:27;98366.13;;;2.30;73.76
39411;BME280;26579;43.238;23.124;2023-01-25T01:45:56;98375.97;;;2.46;73.89
39411;BME280;26579;43.238;23.124;2023-01-25T01:51:49;98370.88;;;2.45;72.77
39411;BME280;26579;43.238;23.124;2023-01-25T01:57:29;98361.94;;;2.58;72.26
39411;BME280;26579;43.238;23.124;2023-01-25T02:00:02;98371.94;;;2.69;71.40
39411;BME280;26579;43.238;23.124;2023-01-25T02:02:39;98367.63;;;2.69;71.25
39411;BME280;26579;43.238;23.124;2023-01-25T02:05:09;98363.66;;;2.59;70.94
39411;BME280;26579;43.238;23.124;2023-01-25T02:07:37;98370.28;;;2.66;71.31
39411;BME280;26579;43.238;23.124;2023-01-25T02:10:06;98361.75;;;2.66;71.42
39411;BME280;26579;43.238;23.124;2023-01-25T02:12:32;98358.88;;;2.45;72.12
39411;BME280;26579;43.238;23.124;2023-01-25T02:14:59;98357.25;;;2.41;72.08
39411;BME280;26579;43.238;23.124;2023-01-25T02:17:31;98364.94;;;2.43;72.27
39411;BME280;26579;43.238;23.124;2023-01-25T02:22:58;98357.59;;;2.62;72.04
39411;BME280;26579;43.238;23.124;2023-01-25T02:25:26;98333.81;;;2.54;70.86
39411;BME280;26579;43.238;23.124;2023-01-25T02:27:56;98347.41;;;2.57;70.23
39411;BME280;26579;43.238;23.124;2023-01-25T02:30:25;98352.19;;;2.38;70.20
39411;BME280;26579;43.238;23.124;2023-01-25T02:32:51;98352.50;;;2.28;71.37
39411;BME280;26579;43.238;23.124;2023-01-25T02:35:19;98353.25;;;2.31;72.29
39411;BME280;26579;43.238;23.124;2023-01-25T02:37:45;98355.63;;;2.39;71.64
39411;BME280;26579;43.238;23.124;2023-01-25T02:40:11;98351.25;;;2.41;71.63
39411;BME280;26579;43.238;23.124;2023-01-25T02:42:40;98332.00;;;2.24;71.62
39411;BME280;26579;43.238;23.124;2023-01-25T02:45:09;98345.47;;;2.33;71.60
39411;BME280;26579;43.238;23.124;2023-01-25T02:47:38;98348.09;;;2.31;71.68
39411;BME280;26579;43.238;23.124;2023-01-25T02:50:04;98342.28;;;2.24;70.58
39411;BME280;26579;43.238;23.124;2023-01-25T02:52:30;98349.22;;;2.21;70.01
39411;BME280;26579;43.238;23.124;2023-01-25T02:54:57;98347.38;;;2.26;71.14
39411;BME280;26579;43.238;23.124;2023-01-25T02:57:23;98350.84;;;2.25;71.16
39411;BME280;26579;43.238;23.124;2023-01-25T02:59:48;98347.66;;;2.15;70.94
39411;BME280;26579;43.238;23.124;2023-01-25T03:02:15;98350.25;;;2.15;71.69
39411;BME280;26579;43.238;23.124;2023-01-25T03:04:41;98341.72;;;2.13;72.08
39411;BME280;26579;43.238;23.124;2023-01-25T03:07:07;98346.63;;;2.21;72.61
39411;BME280;26579;43.238;23.124;2023-01-25T03:09:33;98344.97;;;2.20;73.30
39411;BME280;26579;43.238;23.124;2023-01-25T03:11:58;98352.28;;;2.35;72.62
39411;BME280;26579;43.238;23.124;2023-01-25T03:14:24;98336.22;;;2.27;71.37
39411;BME280;26579;43.238;23.124;2023-01-25T03:16:50;98325.09;;;2.26;71.49
39411;BME280;26579;43.238;23.124;2023-01-25T03:19:19;98342.78;;;2.39;71.41
39411;BME280;26579;43.238;23.124;2023-01-25T03:21:44;98320.88;;;2.24;71.47
39411;BME280;26579;43.238;23.124;2023-01-25T03:24:10;98331.69;;;2.37;71.56
39411;BME280;26579;43.238;23.124;2023-01-25T03:26:42;98335.16;;;2.34;71.10
39411;BME280;26579;43.238;23.124;2023-01-25T03:29:16;98319.69;;;2.04;71.67
39411;BME280;26579;43.238;23.124;2023-01-25T03:31:44;98320.84;;;1.93;72.49
39411;BME280;26579;43.238;23.124;2023-01-25T03:34:10;98323.25;;;1.99;72.50
39411;BME280;26579;43.238;23.124;2023-01-25T03:36:39;98319.66;;;1.72;72.45
39411;BME280;26579;43.238;23.124;2023-01-25T03:39:05;98318.47;;;1.48;73.30
39411;BME280;26579;43.238;23.124;2023-01-25T03:41:36;98338.78;;;1.58;74.54
39411;BME280;26579;43.238;23.124;2023-01-25T03:44:02;98338.69;;;1.63;74.97
39411;BME280;26579;43.238;23.124;2023-01-25T03:46:28;98316.94;;;1.41;75.15
39411;BME280;26579;43.238;23.124;2023-01-25T03:48:54;98311.06;;;1.37;74.28
39411;BME280;26579;43.238;23.124;2023-01-25T03:51:19;98320.44;;;1.38;74.80
39411;BME280;26579;43.238;23.124;2023-01-25T03:53:46;98317.25;;;1.27;75.21
39411;BME280;26579;43.238;23.124;2023-01-25T03:56:15;98338.59;;;1.29;75.31
39411;BME280;26579;43.238;23.124;2023-01-25T03:58:45;98331.50;;;1.40;75.24
39411;BME280;26579;43.238;23.124;2023-01-25T04:01:11;98313.81;;;1.28;75.04
39411;BME280;26579;43.238;23.124;2023-01-25T04:03:37;98336.38;;;1.51;75.42
39411;BME280;26579;43.238;23.124;2023-01-25T04:06:05;98325.88;;;1.62;75.11
39411;BME280;26579;43.238;23.124;2023-01-25T04:08:32;98323.19;;;1.66;74.83
39411;BME280;26579;43.238;23.124;2023-01-25T04:11:06;98328.34;;;1.65;74.79
39411;BME280;26579;43.238;23.124;2023-01-25T04:13:32;98307.72;;;1.69;75.12
39411;BME280;26579;43.238;23.124;2023-01-25T04:15:58;98300.94;;;1.65;74.08
39411;BME280;26579;43.238;23.124;2023-01-25T04:18:47;98315.22;;;1.77;74.55
39411;BME280;26579;43.238;23.124;2023-01-25T04:21:13;98319.72;;;1.69;74.44
39411;BME280;26579;43.238;23.124;2023-01-25T04:23:38;98299.31;;;1.63;74.23
39411;BME280;26579;43.238;23.124;2023-01-25T04:26:06;98314.06;;;1.54;74.17
39411;BME280;26579;43.238;23.124;2023-01-25T04:28:33;98325.88;;;1.62;75.11
39411;BME280;26579;43.238;23.124;2023-01-25T04:31:00;98317.41;;;1.58;75.21
39411;BME280;26579;43.238;23.124;2023-01-25T04:33:33;98314.50;;;1.72;75.49
39411;BME280;26579;43.238;23.124;2023-01-25T04:35:58;98319.34;;;1.83;74.88
39411;BME280;26579;43.238;23.124;2023-01-25T04:38:24;98325.06;;;1.94;74.85
39411;BME280;26579;43.238;23.124;2023-01-25T04:40:51;98319.69;;;2.04;72.70
39411;BME280;26579;43.238;23.124;2023-01-25T04:43:18;98331.34;;;2.16;73.61
39411;BME280;26579;43.238;23.124;2023-01-25T04:45:44;98340.81;;;2.14;73.48
39411;BME280;26579;43.238;23.124;2023-01-25T04:48:19;98345.81;;;2.20;72.90
39411;BME280;26579;43.238;23.124;2023-01-25T04:50:53;98337.22;;;2.21;72.86
39411;BME280;26579;43.238;23.124;2023-01-25T04:53:21;98337.06;;;2.28;72.27
39411;BME280;26579;43.238;23.124;2023-01-25T04:55:46;98318.03;;;2.02;72.09
39411;BME280;26579;43.238;23.124;2023-01-25T04:58:13;98340.31;;;2.01;73.77
39411;BME280;26579;43.238;23.124;2023-01-25T05:00:40;98340.31;;;2.01;73.13
39411;BME280;26579;43.238;23.124;2023-01-25T05:03:06;98340.31;;;2.01;72.51
39411;BME280;26579;43.238;23.124;2023-01-25T05:05:31;98345.53;;;1.98;72.94
39411;BME280;26579;43.238;23.124;2023-01-25T05:07:59;98328.53;;;1.93;72.71
39411;BME280;26579;43.238;23.124;2023-01-25T05:10:26;98320.78;;;1.94;72.36
39411;BME280;26579;43.238;23.124;2023-01-25T05:13:18;98345.38;;;2.04;72.63
39411;BME280;26579;43.238;23.124;2023-01-25T05:15:45;98319.13;;;1.92;72.78
39411;BME280;26579;43.238;23.124;2023-01-25T05:18:12;98324.16;;;1.96;72.21
39411;BME280;26579;43.238;23.124;2023-01-25T05:20:37;98324.06;;;2.01;72.62
39411;BME280;26579;43.238;23.124;2023-01-25T05:23:03;98339.16;;;2.13;72.93
39411;BME280;26579;43.238;23.124;2023-01-25T05:25:30;98342.22;;;2.26;72.19
39411;BME280;26579;43.238;23.124;2023-01-25T05:27:56;98348.19;;;2.28;72.24
39411;BME280;26579;43.238;23.124;2023-01-25T05:30:44;98346.44;;;2.30;72.45
39411;BME280;26579;43.238;23.124;2023-01-25T05:33:20;98346.34;;;2.33;72.63
39411;BME280;26579;43.238;23.124;2023-01-25T05:35:46;98349.88;;;2.29;72.23
39411;BME280;26579;43.238;23.124;2023-01-25T05:38:12;98358.22;;;2.37;72.22
39411;BME280;26579;43.238;23.124;2023-01-25T05:40:37;98349.00;;;2.30;72.95
39411;BME280;26579;43.238;23.124;2023-01-25T05:43:03;98359.94;;;2.37;72.53
39411;BME280;26579;43.238;23.124;2023-01-25T05:45:30;98353.31;;;2.28;71.96
39411;BME280;26579;43.238;23.124;2023-01-25T05:47:57;98343.72;;;2.35;72.83
39411;BME280;26579;43.238;23.124;2023-01-25T05:50:23;98342.22;;;2.28;73.23
39411;BME280;26579;43.238;23.124;2023-01-25T05:52:57;98355.56;;;2.40;72.49
39411;BME280;26579;43.238;23.124;2023-01-25T05:55:22;98359.88;;;2.40;72.73
39411;BME280;26579;43.238;23.124;2023-01-25T05:57:54;98336.84;;;2.35;72.38
39411;BME280;26579;43.238;23.124;2023-01-25T06:00:20;98328.56;;;2.24;72.37
39411;BME280;26579;43.238;23.124;2023-01-25T06:02:46;98373.47;;;2.43;71.83
39411;BME280;26579;43.238;23.124;2023-01-25T06:05:15;98359.16;;;2.35;72.05
39411;BME280;26579;43.238;23.124;2023-01-25T06:07:42;98355.38;;;2.48;72.01
39411;BME280;26579;43.238;23.124;2023-01-25T06:10:08;98357.88;;;2.49;71.96
39411;BME280;26579;43.238;23.124;2023-01-25T06:12:34;98330.94;;;2.32;71.86
39411;BME280;26579;43.238;23.124;2023-01-25T06:15:00;98344.47;;;2.38;72.85
39411;BME280;26579;43.238;23.124;2023-01-25T06:17:26;98334.69;;;2.20;71.88
39411;BME280;26579;43.238;23.124;2023-01-25T06:20:16;98347.44;;;2.24;72.47
39411;BME280;26579;43.238;23.124;2023-01-25T06:23:02;98357.72;;;2.24;72.33
39411;BME280;26579;43.238;23.124;2023-01-25T06:25:28;98342.41;;;2.20;72.89
39411;BME280;26579;43.238;23.124;2023-01-25T06:27:54;98344.88;;;2.24;73.41
39411;BME280;26579;43.238;23.124;2023-01-25T06:30:20;98352.56;;;2.24;72.92
39411;BME280;26579;43.238;23.124;2023-01-25T06:32:45;98344.03;;;2.22;72.24
39411;BME280;26579;43.238;23.124;2023-01-25T06:35:11;98318.94;;;1.99;73.09
39411;BME280;26579;43.238;23.124;2023-01-25T06:37:36;98323.06;;;2.07;73.53
39411;BME280;26579;43.238;23.124;2023-01-25T06:40:02;98324.50;;;2.17;72.85
39411;BME280;26579;43.238;23.124;2023-01-25T06:42:28;98343.81;;;2.32;72.68
39411;BME280;26579;43.238;23.124;2023-01-25T06:44:54;98323.31;;;2.29;72.85
39411;BME280;26579;43.238;23.124;2023-01-25T06:47:19;98351.44;;;2.35;71.43
39411;BME280;26579;43.238;23.124;2023-01-25T06:49:45;98335.19;;;2.33;71.90
39411;BME280;26579;43.238;23.124;2023-01-25T06:52:11;98347.28;;;2.29;71.58
39411;BME280;26579;43.238;23.124;2023-01-25T06:54:37;98339.75;;;2.23;71.49
39411;BME280;26579;43.238;23.124;2023-01-25T06:57:02;98348.69;;;2.08;71.98
39411;BME280;26579;43.238;23.124;2023-01-25T06:59:28;98355.38;;;1.79;73.72
39411;BME280;26579;43.238;23.124;2023-01-25T07:01:54;98348.66;;;1.74;74.17
39411;BME280;26579;43.238;23.124;2023-01-25T07:04:19;98350.63;;;1.64;74.23
39411;BME280;26579;43.238;23.124;2023-01-25T07:06:45;98295.13;;;1.23;74.46
39411;BME280;26579;43.238;23.124;2023-01-25T07:09:12;98322.09;;;1.41;75.30
39411;BME280;26579;43.238;23.124;2023-01-25T07:11:38;98351.53;;;1.62;75.23
39411;BME280;26579;43.238;23.124;2023-01-25T07:14:05;98337.97;;;1.56;74.62
39411;BME280;26579;43.238;23.124;2023-01-25T07:16:31;98336.13;;;1.62;75.34
39411;BME280;26579;43.238;23.124;2023-01-25T07:18:57;98347.16;;;1.65;75.17
39411;BME280;26579;43.238;23.124;2023-01-25T07:21:22;98333.25;;;1.75;75.57
39411;BME280;26579;43.238;23.124;2023-01-25T07:23:49;98342.31;;;1.89;74.82
39411;BME280;26579;43.238;23.124;2023-01-25T07:26:23;98326.97;;;1.87;74.67
39411;BME280;26579;43.238;23.124;2023-01-25T07:28:50;98330.94;;;1.99;74.69
39411;BME280;26579;43.238;23.124;2023-01-25T07:31:17;98341.81;;;2.10;74.81
39411;BME280;26579;43.238;23.124;2023-01-25T07:33:47;98340.88;;;2.13;74.48
39411;BME280;26579;43.238;23.124;2023-01-25T07:36:13;98347.84;;;2.08;74.00
39411;BME280;26579;43.238;23.124;2023-01-25T07:38:39;98338.00;;;1.55;75.78
39411;BME280;26579;43.238;23.124;2023-01-25T07:41:05;98355.31;;;1.47;77.01
39411;BME280;26579;43.238;23.124;2023-01-25T07:43:31;98337.84;;;1.24;77.30
39411;BME280;26579;43.238;23.124;2023-01-25T07:46:04;98357.34;;;1.32;79.08
39411;BME280;26579;43.238;23.124;2023-01-25T07:48:30;98363.28;;;1.34;78.20
39411;BME280;26579;43.238;23.124;2023-01-25T07:51:00;98362.19;;;1.45;78.08
39411;BME280;26579;43.238;23.124;2023-01-25T07:53:28;98369.56;;;1.60;77.78
39411;BME280;26579;43.238;23.124;2023-01-25T07:55:53;98358.53;;;1.55;77.65
39411;BME280;26579;43.238;23.124;2023-01-25T07:58:23;98351.63;;;1.58;77.49
39411;BME280;26579;43.238;23.124;2023-01-25T08:00:48;98361.91;;;1.57;77.93
39411;BME280;26579;43.238;23.124;2023-01-25T08:03:14;98356.72;;;1.60;77.79
39411;BME280;26579;43.238;23.124;2023-01-25T08:05:43;98357.19;;;1.39;77.75
39411;BME280;26579;43.238;23.124;2023-01-25T08:08:09;98355.31;;;1.47;77.94
39411;BME280;26579;43.238;23.124;2023-01-25T08:10:35;98337.47;;;1.41;78.25
39411;BME280;26579;43.238;23.124;2023-01-25T08:13:00;98350.91;;;1.52;77.55
39411;BME280;26579;43.238;23.124;2023-01-25T08:15:26;98359.53;;;1.48;78.41
39411;BME280;26579;43.238;23.124;2023-01-25T08:17:51;98367.81;;;1.23;78.95
39411;BME280;26579;43.238;23.124;2023-01-25T08:20:17;98374.59;;;1.26;80.02
39411;BME280;26579;43.238;23.124;2023-01-25T08:22:43;98374.25;;;1.41;79.91
39411;BME280;26579;43.238;23.124;2023-01-25T08:25:09;98356.28;;;1.41;78.58
39411;BME280;26579;43.238;23.124;2023-01-25T08:27:35;98362.03;;;1.51;78.92
39411;BME280;26579;43.238;23.124;2023-01-25T08:30:01;98373.69;;;1.66;78.17
39411;BME280;26579;43.238;23.124;2023-01-25T08:32:26;98354.00;;;1.66;78.51
39411;BME280;26579;43.238;23.124;2023-01-25T08:34:52;98373.50;;;1.75;78.28
39411;BME280;26579;43.238;23.124;2023-01-25T08:37:18;98375.75;;;1.87;78.28
39411;BME280;26579;43.238;23.124;2023-01-25T08:39:43;98378.94;;;1.97;77.75
39411;BME280;26579;43.238;23.124;2023-01-25T08:42:09;98368.59;;;2.00;76.96
39411;BME280;26579;43.238;23.124;2023-01-25T08:44:35;98365.16;;;2.01;77.03
39411;BME280;26579;43.238;23.124;2023-01-25T08:47:00;98368.50;;;2.03;77.26
39411;BME280;26579;43.238;23.124;2023-01-25T08:49:26;98347.03;;;2.07;76.67
39411;BME280;26579;43.238;23.124;2023-01-25T08:51:52;98345.69;;;2.25;75.93
39411;BME280;26579;43.238;23.124;2023-01-25T08:54:17;98357.53;;;2.31;76.05
39411;BME280;26579;43.238;23.124;2023-01-25T08:56:43;98355.75;;;2.33;76.06
39411;BME280;26579;43.238;23.124;2023-01-25T08:59:12;98351.25;;;2.42;75.39
39411;BME280;26579;43.238;23.124;2023-01-25T09:01:38;98339.47;;;2.34;74.15
39411;BME280;26579;43.238;23.124;2023-01-25T09:04:04;98341.81;;;2.41;74.02
39411;BME280;26579;43.238;23.124;2023-01-25T09:06:30;98354.41;;;2.52;73.94
39411;BME280;26579;43.238;23.124;2023-01-25T09:08:57;98339.41;;;2.35;73.24
39411;BME280;26579;43.238;23.124;2023-01-25T09:11:23;98361.59;;;2.39;74.20
39411;BME280;26579;43.238;23.124;2023-01-25T09:13:49;98354.47;;;2.49;74.11
39411;BME280;26579;43.238;23.124;2023-01-25T09:16:17;98343.47;;;2.44;73.87
39411;BME280;26579;43.238;23.124;2023-01-25T09:18:43;98350.19;;;2.49;74.00
39411;BME280;26579;43.238;23.124;2023-01-25T09:21:12;98340.88;;;2.45;73.75
39411;BME280;26579;43.238;23.124;2023-01-25T09:23:38;98331.25;;;2.52;73.56
39411;BME280;26579;43.238;23.124;2023-01-25T09:26:05;98326.19;;;2.51;73.11
39411;BME280;26579;43.238;23.124;2023-01-25T09:28:31;98313.31;;;2.51;72.27
39411;BME280;26579;43.238;23.124;2023-01-25T09:30:59;98321.72;;;2.56;72.95
39411;BME280;26579;43.238;23.124;2023-01-25T09:33:45;98324.53;;;2.48;73.09
39411;BME280;26579;43.238;23.124;2023-01-25T09:36:11;98318.94;;;2.32;73.40
39411;BME280;26579;43.238;23.124;2023-01-25T09:38:37;98317.00;;;2.40;74.18
39411;BME280;26579;43.238;23.124;2023-01-25T09:54:47;98301.75;;;2.34;74.38
39411;BME280;26579;43.238;23.124;2023-01-25T09:57:29;98294.47;;;2.19;75.53
39411;BME280;26579;43.238;23.124;2023-01-25T10:00:00;98264.25;;;1.96;75.26
39411;BME280;26579;43.238;23.124;2023-01-25T10:02:39;98280.97;;;2.11;76.11
39411;BME280;26579;43.238;23.124;2023-01-25T10:05:16;98281.56;;;2.20;75.44
39411;BME280;26579;43.238;23.124;2023-01-25T10:07:58;98278.28;;;2.15;75.89
39411;BME280;26579;43.238;23.124;2023-01-25T10:10:34;98283.50;;;2.12;76.28
39411;BME280;26579;43.238;23.124;2023-01-25T10:13:02;98282.91;;;2.02;75.39
39411;BME280;26579;43.238;23.124;2023-01-25T10:15:32;98254.28;;;1.84;76.25
39411;BME280;26579;43.238;23.124;2023-01-25T10:21:00;98259.66;;;2.07;75.55
39411;BME280;26579;43.238;23.124;2023-01-25T10:26:36;98266.88;;;2.25;75.53
39411;BME280;26579;43.238;23.124;2023-01-25T10:29:20;98261.66;;;2.29;75.41
39411;BME280;26579;43.238;23.124;2023-01-25T10:31:48;98234.22;;;2.29;74.72
39411;BME280;26579;43.238;23.124;2023-01-25T10:34:46;98242.13;;;2.53;74.77
39411;BME280;26579;43.238;23.124;2023-01-25T10:37:15;98246.97;;;2.63;73.63
39411;BME280;26579;43.238;23.124;2023-01-25T10:40:00;98245.13;;;2.67;74.26
39411;BME280;26579;43.238;23.124;2023-01-25T10:42:30;98232.44;;;2.62;73.49
39411;BME280;26579;43.238;23.124;2023-01-25T10:44:58;98216.81;;;2.68;73.44
39411;BME280;26579;43.238;23.124;2023-01-25T10:47:27;98230.88;;;2.85;73.09
39411;BME280;26579;43.238;23.124;2023-01-25T10:49:55;98225.31;;;2.99;72.38
39411;BME280;26579;43.238;23.124;2023-01-25T10:52:26;98221.88;;;3.00;72.51
39411;BME280;26579;43.238;23.124;2023-01-25T10:55:19;98210.50;;;3.07;71.78
39411;BME280;26579;43.238;23.124;2023-01-25T10:57:50;98205.09;;;3.14;71.30
39411;BME280;26579;43.238;23.124;2023-01-25T11:00:36;98200.38;;;3.29;71.30
39411;BME280;26579;43.238;23.124;2023-01-25T11:03:03;98199.81;;;3.19;71.27
39411;BME280;26579;43.238;23.124;2023-01-25T11:05:36;98202.06;;;3.02;72.26
39411;BME280;26579;43.238;23.124;2023-01-25T11:08:36;98203.88;;;3.00;72.40
39411;BME280;26579;43.238;23.124;2023-01-25T11:11:21;98205.75;;;2.93;72.37
39411;BME280;26579;43.238;23.124;2023-01-25T11:13:47;98185.75;;;2.75;72.25
39411;BME280;26579;43.238;23.124;2023-01-25T11:16:32;98172.28;;;2.66;72.65
39411;BME280;26579;43.238;23.124;2023-01-25T11:18:58;98185.75;;;2.75;72.66
39411;BME280;26579;43.238;23.124;2023-01-25T11:21:30;98190.38;;;2.63;73.33
39411;BME280;26579;43.238;23.124;2023-01-25T11:26:32;98185.75;;;2.75;73.61
39411;BME280;26579;43.238;23.124;2023-01-25T11:29:15;98180.47;;;2.79;72.75
39411;BME280;26579;43.238;23.124;2023-01-25T11:31:45;98186.59;;;2.75;72.95
39411;BME280;26579;43.238;23.124;2023-01-25T11:34:13;98170.56;;;2.67;72.87
39411;BME280;26579;43.238;23.124;2023-01-25T11:36:41;98191.72;;;2.77;73.32
39411;BME280;26579;43.238;23.124;2023-01-25T11:48:13;98131.56;;;2.24;73.25
39411;BME280;26579;43.238;23.124;2023-01-25T12:02:04;98153.38;;;2.67;73.06
39411;BME280;26579;43.238;23.124;2023-01-25T12:13:10;98140.81;;;2.58;73.06
39411;BME280;26579;43.238;23.124;2023-01-25T12:16:11;98146.91;;;2.56;73.21
39411;BME280;26579;43.238;23.124;2023-01-25T12:29:59;98104.31;;;2.47;72.69
39411;BME280;26579;43.238;23.124;2023-01-25T12:32:43;98111.81;;;2.55;73.17
39411;BME280;26579;43.238;23.124;2023-01-25T12:35:38;98103.47;;;2.46;73.24
39411;BME280;26579;43.238;23.124;2023-01-25T12:38:29;98096.16;;;2.62;71.85
39411;BME280;26579;43.238;23.124;2023-01-25T12:40:59;98105.97;;;2.76;72.39
39411;BME280;26579;43.238;23.124;2023-01-25T12:43:34;98112.13;;;2.72;71.44
39411;BME280;26579;43.238;23.124;2023-01-25T12:46:25;98101.59;;;2.80;70.73
39411;BME280;26579;43.238;23.124;2023-01-25T12:48:55;98084.72;;;2.71;71.21
39411;BME280;26579;43.238;23.124;2023-01-25T12:51:23;98088.78;;;2.78;71.25
39411;BME280;26579;43.238;23.124;2023-01-25T12:53:54;98078.72;;;2.70;70.67
39411;BME280;26579;43.238;23.124;2023-01-25T12:56:44;98101.50;;;2.83;71.41
39411;BME280;26579;43.238;23.124;2023-01-25T12:59:52;98092.75;;;2.88;71.81
39411;BME280;26579;43.238;23.124;2023-01-25T13:11:11;98083.41;;;2.86;72.46
39411;BME280;26579;43.238;23.124;2023-01-25T13:13:38;98070.72;;;2.80;71.65
39411;BME280;26579;43.238;23.124;2023-01-25T13:18:48;98080.13;;;2.81;71.82
39411;BME280;26579;43.238;23.124;2023-01-25T13:24:15;98089.13;;;2.94;72.05
39411;BME280;26579;43.238;23.124;2023-01-25T13:31:58;98077.50;;;2.82;72.24
39411;BME280;26579;43.238;23.124;2023-01-25T13:37:14;98046.81;;;2.76;71.71
39411;BME280;26579;43.238;23.124;2023-01-25T13:44:41;98070.44;;;2.89;72.46
39411;BME280;26579;43.238;23.124;2023-01-25T13:47:13;98061.72;;;2.93;71.79
39411;BME280;26579;43.238;23.124;2023-01-25T13:49:43;98066.41;;;3.07;71.50
39411;BME280;26579;43.238;23.124;2023-01-25T13:52:17;98061.47;;;3.01;71.25
39411;BME280;26579;43.238;23.124;2023-01-25T13:54:45;98062.41;;;2.98;71.22
39411;BME280;26579;43.238;23.124;2023-01-25T13:57:13;98067.53;;;2.98;71.77
39411;BME280;26579;43.238;23.124;2023-01-25T13:59:39;98058.81;;;3.02;70.75
39411;BME280;26579;43.238;23.124;2023-01-25T14:04:37;98052.63;;;2.83;71.20
39411;BME280;26579;43.238;23.124;2023-01-25T14:07:03;98050.09;;;2.81;71.63
39411;BME280;26579;43.238;23.124;2023-01-25T14:09:29;98044.25;;;2.76;71.78
39411;BME280;26579;43.238;23.124;2023-01-25T14:11:57;98062.59;;;2.92;71.66
39411;BME280;26579;43.238;23.124;2023-01-25T14:17:17;98064.06;;;2.99;71.36
39411;BME280;26579;43.238;23.124;2023-01-25T14:19:53;98065.13;;;2.93;72.18
39411;BME280;26579;43.238;23.124;2023-01-25T14:22:29;98069.28;;;2.98;71.21
39411;BME280;26579;43.238;23.124;2023-01-25T14:27:30;98074.78;;;2.87;71.05
39411;BME280;26579;43.238;23.124;2023-01-25T14:29:56;98051.13;;;2.76;71.68
39411;BME280;26579;43.238;23.124;2023-01-25T14:32:24;98062.53;;;2.68;72.31
39411;BME280;26579;43.238;23.124;2023-01-25T14:34:51;98056.75;;;2.62;72.94
39411;BME280;26579;43.238;23.124;2023-01-25T14:37:18;98067.25;;;2.54;72.47
39411;BME280;26579;43.238;23.124;2023-01-25T14:39:46;98071.47;;;2.57;72.92
39411;BME280;26579;43.238;23.124;2023-01-25T14:42:12;98052.88;;;2.48;72.71
39411;BME280;26579;43.238;23.124;2023-01-25T14:44:39;98067.75;;;2.65;72.30
39411;BME280;26579;43.238;23.124;2023-01-25T14:49:45;98066.75;;;2.69;72.31
39411;BME280;26579;43.238;23.124;2023-01-25T14:52:12;98070.72;;;2.80;72.22
39411;BME280;26579;43.238;23.124;2023-01-25T14:54:56;98060.56;;;2.77;71.98
39411;BME280;26579;43.238;23.124;2023-01-25T15:00:02;98054.22;;;2.60;73.61
39411;BME280;26579;43.238;23.124;2023-01-25T15:02:43;98050.53;;;2.67;72.59
39411;BME280;26579;43.238;23.124;2023-01-25T15:07:48;98055.31;;;2.80;72.52